Kirikkale, Turkey

9:10 AM EEST on August 01, 2014 (GMT +0300)
kerisli (IANKARAP2) Elev 3117 ft | 39.70 °N, 33.11 °E | Change Station

Current weather conditions updated 3 minutes ago

Clear
Clear
76.5 °F
Feels Like 78 °F
N
2.0
Wind Variable Wind from North
Gusts 3.0 mph

Today is forecast to be Much Warmer than yesterday.

Today
High -- | Low -- °F
--% Chance of Precip.
Yesterday
High -- | Low -- °F
Precip. -- in
5:44 AM 7:59 PM
Waxing Crescent, 24% visible
Pressure 29.86 in
Visibility -9999.0 miles
Clouds
Heat Index 78 °F
Dew Point 52 °F
Humidity 42%
Rainfall 0.00 in
Snow Depth Not available.
UV Not available.
Pollen Not available.
Air Quality Not available.
Flu Activity Not available.
METAR LTAC 010550Z 01003KT 290V090 CAVOK 24/11 Q1011 NOSIG RMK RWY21L VRB02KT RWY03L VRB02KT RWY21R VRB01KT

More Conditions Fewer Conditions

Pressure 29.86 in
Visibility -9999.0 miles
Clouds
Heat Index 78 °F
Dew Point 52 °F
Humidity 42%
Rainfall 0.00 in
Snow Depth Not available.
UV Not available.
Pollen Not available.
Air Quality Not available.
Flu Activity Not available.
METAR LTAC 010550Z 01003KT 290V090 CAVOK 24/11 Q1011 NOSIG RMK RWY21L VRB02KT RWY03L VRB02KT RWY21R VRB01KT

More Conditions Fewer Conditions

10-Day Weather Forecast

Almanac

Astronomy

Aug. 01, 2014 Rise Set
Actual Time 5:44 AM EEST 7:59 PM EEST
Civil Twilight 5:14 AM EEST 8:29 PM EEST
Nautical Twilight 4:36 AM EEST 9:06 PM EEST
Astronomical Twilight 3:55 AM EEST 9:47 PM EEST
Moon 10:48 AM EEST 10:33 PM EEST
Length of Visible Light 15h 15m
Length of Day
14h 15m
Tomorrow will be 1m 58s shorter.
Waxing Crescent, 24% of the Moon is Illuminated
Today
Waxing Crescent
Aug 3
First Quarter
Aug 10
Full
Aug 17
Last Quarter
Aug 25
New

Yesterday's Extremes

Country Highs Country Lows

Community

WunderPhotos

Upload Photos

1,739,522 photos uploaded!

Nearby

Snow Depth

Not available.

Earthquake Activity

City Distance Mag. Time & Date
No recent earthquake activity has been reported nearby.
Minimum magnitude displayed is 2.5.

Coastal Water Temperatures

Place Temperature
No Stations Reporting

Nearby Weather Stations

Station Location Temp. Heat Index Dew Point Humidity Wind Precip. Elev Updated Type
kerisli, Kerişli 76.5 °F 78 °F 52 °F 42% North  at  2.0 mph 0.00 in / hr 3117 ft 9:06 AM EEST Rapid Fire

Show More Stations Show Fewer Stations